CMA CGM Tage — 9HA3777 — position and weather

sailwx.info

Track history (hours):
 
Tides and Currents Weather Stations Pressure Air Temp Water Temp Dewpoint Dewpoint Depression Visibility Wind Speed Wind Dir Waves Ship Positions

CMA CGM Tage

Last reported at 2017-Nov-08 12:15 UTC. Time now 2017-Nov-20 11:58 UTC.
Position N 01°22' E 103°15'.
Warning: this ship's position is 11 days out of date.

Length 300 m; draft 13.1 m.

Type: Ship (hazmat cat A). MMSI: 229988000.

Date/timePositionNaut miles runAvg speedWind from/ knotsBaromVisibWave heightAir tempDewpointWater temp
2017-Nov-08 12:15N 01°22' E 103°15'518.7
2017-Nov-08 11:59N 01°19' E 103°19'919.0
2017-Nov-08 11:30N 01°14' E 103°27'1019.0
2017-Nov-08 11:00N 01°12' E 103°36'5 9.3
2017-Nov-08 10:30N 01°13' E 103°40'5 9.1
2017-Nov-08 10:00N 01°16' E 103°44'3 6.6
2017-Nov-08 09:30N 01°15' E 103°47'0 0.9
2017-Nov-08 08:57N 01°16' E 103°47'0 0.0
2017-Nov-08 08:30N 01°16' E 103°47'0 0.0
2017-Nov-08 07:57N 01°16' E 103°47'0 0.0
2017-Nov-08 07:30N 01°16' E 103°47'0 0.0
2017-Nov-08 07:01N 01°16' E 103°47'0 0.0
2017-Nov-08 06:27N 01°16' E 103°47'0 0.0
2017-Nov-08 06:00N 01°16' E 103°47'0 0.0
2017-Nov-08 05:30N 01°16' E 103°47'0 0.0
2017-Nov-08 05:00N 01°16' E 103°47'0 0.0
2017-Nov-08 04:27N 01°16' E 103°47'0 0.0
2017-Nov-08 03:57N 01°16' E 103°47'0 0.0
2017-Nov-08 03:27N 01°16' E 103°47'0 0.0
2017-Nov-08 03:00N 01°16' E 103°47'0 0.0
2017-Nov-08 02:30N 01°16' E 103°47'0 0.0
2017-Nov-08 02:00N 01°16' E 103°47'0 0.0
2017-Nov-08 01:30N 01°16' E 103°47'0 0.0
2017-Nov-08 00:55N 01°16' E 103°47'0 0.0
2017-Nov-08 00:30N 01°16' E 103°47'0 0.0
2017-Nov-07 23:57N 01°16' E 103°47'0 0.0
2017-Nov-07 23:30N 01°16' E 103°47'0 0.0
2017-Nov-07 22:57N 01°16' E 103°47'0 0.0
2017-Nov-07 22:30N 01°16' E 103°47'0 0.0
2017-Nov-07 21:54N 01°16' E 103°47'0 0.0
2017-Nov-07 21:30N 01°16' E 103°47'0 0.1
2017-Nov-07 21:00N 01°16' E 103°47'0 0.1
2017-Nov-07 20:30N 01°16' E 103°47'0 0.0
2017-Nov-07 20:00N 01°16' E 103°47'0 0.0
2017-Nov-07 19:30N 01°16' E 103°47'0 0.0
2017-Nov-07 19:00N 01°16' E 103°47'0 0.0
2017-Nov-07 18:30N 01°16' E 103°47'0 0.0
2017-Nov-07 17:57N 01°16' E 103°47'0 0.0
2017-Nov-07 17:30N 01°16' E 103°47'0 0.0
2017-Nov-07 17:00N 01°16' E 103°47'0 0.0
2017-Nov-07 16:30N 01°16' E 103°47'0 0.0
2017-Nov-07 15:57N 01°16' E 103°47'0 0.0
2017-Nov-07 15:20N 01°16' E 103°47'0 0.1
2017-Nov-07 14:56N 01°16' E 103°47'0 0.0
2017-Nov-07 14:29N 01°16' E 103°47'0 0.0
2017-Nov-07 13:59N 01°16' E 103°47'0 0.0
2017-Nov-07 13:30N 01°16' E 103°47'0 0.0
2017-Nov-07 12:56N 01°16' E 103°47'0 0.0
2017-Nov-07 12:29N 01°16' E 103°47'0 0.0
2017-Nov-07 11:59N 01°16' E 103°47'0 0.4
2017-Nov-07 11:31N 01°15' E 103°47'2 3.0
2017-Nov-07 11:01N 01°14' E 103°47'5 9.8
2017-Nov-07 10:31N 01°13' E 103°52'510.3
2017-Nov-07 10:00N 01°14' E 103°57'5 9.7
2017-Nov-07 09:30N 01°16' E 104°02'  
2017-Nov-03 01:18N 21°50' E 114°22'517.2
2017-Nov-03 01:00N 21°55' E 114°23'917.2
2017-Nov-03 00:30N 22°04' E 114°25'816.3
2017-Nov-02 23:59N 22°06' E 114°16'814.3
2017-Nov-02 23:26N 22°12' E 114°10'4 9.1
2017-Nov-02 22:59N 22°15' E 114°07'0 0.0
2017-Nov-01 20:14N 22°15' E 114°07'5 9.8
2017-Nov-01 19:43N 22°12' E 114°11'311.6
2017-Nov-01 19:28N 22°09' E 114°13'612.3
2017-Nov-01 19:00N 22°08' E 114°19'613.1
2017-Nov-01 18:31N 22°07' E 114°26'  
Track history (hours):
 
Tides and Currents Weather Stations Pressure Air Temp Water Temp Dewpoint Dewpoint Depression Visibility Wind Speed Wind Dir Waves Ship Positions

CMA CGM Tage

Last reported at 2017-Nov-08 12:15 UTC. Time now 2017-Nov-20 11:58 UTC.
Position N 01°22' E 103°15'.
Warning: this ship's position is 11 days out of date.

Length 300 m; draft 13.1 m.

Type: Ship (hazmat cat A). MMSI: 229988000.

Date/timePositionNaut miles runAvg speedWind from/ knotsBaromVisibWave heightAir tempDewpointWater temp
2017-Nov-08 12:15N 01°22' E 103°15'518.7
2017-Nov-08 11:59N 01°19' E 103°19'919.0
2017-Nov-08 11:30N 01°14' E 103°27'1019.0
2017-Nov-08 11:00N 01°12' E 103°36'5 9.3
2017-Nov-08 10:30N 01°13' E 103°40'5 9.1
2017-Nov-08 10:00N 01°16' E 103°44'3 6.6
2017-Nov-08 09:30N 01°15' E 103°47'0 0.9
2017-Nov-08 08:57N 01°16' E 103°47'0 0.0
2017-Nov-08 08:30N 01°16' E 103°47'0 0.0
2017-Nov-08 07:57N 01°16' E 103°47'0 0.0
2017-Nov-08 07:30N 01°16' E 103°47'0 0.0
2017-Nov-08 07:01N 01°16' E 103°47'0 0.0
2017-Nov-08 06:27N 01°16' E 103°47'0 0.0
2017-Nov-08 06:00N 01°16' E 103°47'0 0.0
2017-Nov-08 05:30N 01°16' E 103°47'0 0.0
2017-Nov-08 05:00N 01°16' E 103°47'0 0.0
2017-Nov-08 04:27N 01°16' E 103°47'0 0.0
2017-Nov-08 03:57N 01°16' E 103°47'0 0.0
2017-Nov-08 03:27N 01°16' E 103°47'0 0.0
2017-Nov-08 03:00N 01°16' E 103°47'0 0.0
2017-Nov-08 02:30N 01°16' E 103°47'0 0.0
2017-Nov-08 02:00N 01°16' E 103°47'0 0.0
2017-Nov-08 01:30N 01°16' E 103°47'0 0.0
2017-Nov-08 00:55N 01°16' E 103°47'0 0.0
2017-Nov-08 00:30N 01°16' E 103°47'0 0.0
2017-Nov-07 23:57N 01°16' E 103°47'0 0.0
2017-Nov-07 23:30N 01°16' E 103°47'0 0.0
2017-Nov-07 22:57N 01°16' E 103°47'0 0.0
2017-Nov-07 22:30N 01°16' E 103°47'0 0.0
2017-Nov-07 21:54N 01°16' E 103°47'0 0.0
2017-Nov-07 21:30N 01°16' E 103°47'0 0.1
2017-Nov-07 21:00N 01°16' E 103°47'0 0.1
2017-Nov-07 20:30N 01°16' E 103°47'0 0.0
2017-Nov-07 20:00N 01°16' E 103°47'0 0.0
2017-Nov-07 19:30N 01°16' E 103°47'0 0.0
2017-Nov-07 19:00N 01°16' E 103°47'0 0.0
2017-Nov-07 18:30N 01°16' E 103°47'0 0.0
2017-Nov-07 17:57N 01°16' E 103°47'0 0.0
2017-Nov-07 17:30N 01°16' E 103°47'0 0.0
2017-Nov-07 17:00N 01°16' E 103°47'0 0.0
2017-Nov-07 16:30N 01°16' E 103°47'0 0.0
2017-Nov-07 15:57N 01°16' E 103°47'0 0.0
2017-Nov-07 15:20N 01°16' E 103°47'0 0.1
2017-Nov-07 14:56N 01°16' E 103°47'0 0.0
2017-Nov-07 14:29N 01°16' E 103°47'0 0.0
2017-Nov-07 13:59N 01°16' E 103°47'0 0.0
2017-Nov-07 13:30N 01°16' E 103°47'0 0.0
2017-Nov-07 12:56N 01°16' E 103°47'0 0.0
2017-Nov-07 12:29N 01°16' E 103°47'0 0.0
2017-Nov-07 11:59N 01°16' E 103°47'0 0.4
2017-Nov-07 11:31N 01°15' E 103°47'2 3.0
2017-Nov-07 11:01N 01°14' E 103°47'5 9.8
2017-Nov-07 10:31N 01°13' E 103°52'510.3
2017-Nov-07 10:00N 01°14' E 103°57'5 9.7
2017-Nov-07 09:30N 01°16' E 104°02'  
2017-Nov-03 01:18N 21°50' E 114°22'517.2
2017-Nov-03 01:00N 21°55' E 114°23'917.2
2017-Nov-03 00:30N 22°04' E 114°25'816.3
2017-Nov-02 23:59N 22°06' E 114°16'814.3
2017-Nov-02 23:26N 22°12' E 114°10'4 9.1
2017-Nov-02 22:59N 22°15' E 114°07'0 0.0
2017-Nov-01 20:14N 22°15' E 114°07'5 9.8
2017-Nov-01 19:43N 22°12' E 114°11'311.6
2017-Nov-01 19:28N 22°09' E 114°13'612.3
2017-Nov-01 19:00N 22°08' E 114°19'613.1
2017-Nov-01 18:31N 22°07' E 114°26'  

Dump ship's entire track history